Etusivu
METAR-TAF:

METAR-TAF

Lentoasemat :

Jedda, Saudi-Arabia

Kuningas Abdilazizin kansainvälinen lentoasema

Leveyspiiri: 21-42N, Pituuspiiri: 039-11E, korkeus merenpinnasta: 15 m

Tämänhetkinen sää

Tämä raportti tehtiin 12 tuntia ja 4 minuuttia sitten, kello 15.00 UTC
Tuuli 8 kn lännestä
Lämpötila 26°C
Kosteus 61%
Ilmanpaine 1007 hPa
Näkyvyys 10 km tai enemmän
ei pilviä alle 1500 m:ssä eikä cumulonimbus-pilviä

METAR: OEJN 201500Z 26008KT CAVOK 26/18 Q1007 NOSIG

Aika: 06:04 (03:04 UTC)

Sääennuste

Tämä raportti tehtiin 22 tuntia ja 4 minuuttia sitten, kello 05.00 UTC
Ennuste voimassa 20. päivästä klo 06 UTC - 21. päivään klo 12 UTC
Tuuli 14 kn lännestä
Näkyvyys 10 km tai enemmän
Muutamia pilviä 4000 ft:n korkeudessa

TAF: OEJN 200500Z 2006/2112 28014KT 9999 FEW040

Säähavainnot ja -ennusteet yli 4000 lentoasemalta (METAR- ja TAF-raportit).

Käytössä olevat sääasemat on merkitty karttaan keltaisilla ja punaisilla pisteillä.

Aseta hiiri pisteen päälle nähdäksesi sääaseman nimen.

Klikkaa sitten nähdäksesi säähavainnot ja -ennusteet.

Kartan vaihtaminen: klikkaa mustalla rastilla varustettuja vihreitä pisteitä, niin voit zoomata sisään; viivalla varustettua vihreää pistettä, niin voit zoomata ulos tai vihreitä nuolia, niin pääset viereisille kartoille.


METAR-TAF: